createdAt,value
2019-05-20T00:01:16.371Z,58.47
2019-05-20T00:03:47.508Z,58.40
2019-05-20T00:06:17.473Z,60.40
2019-05-20T00:08:47.435Z,59.60
2019-05-20T00:11:17.091Z,58.47
2019-05-20T00:13:46.786Z,59.17
2019-05-20T00:16:18.464Z,55.90
2019-05-20T00:18:49.185Z,59.33
2019-05-20T00:21:18.941Z,59.30
2019-05-20T00:23:48.989Z,58.07
2019-05-20T00:26:19.120Z,57.17
2019-05-20T00:28:48.809Z,58.17
2019-05-20T00:31:18.466Z,59.90
2019-05-20T00:33:48.174Z,57.37
2019-05-20T00:36:17.835Z,58.43
2019-05-20T00:38:49.201Z,59.17
2019-05-20T00:41:18.877Z,60.03
2019-05-20T00:43:48.529Z,59.83
2019-05-20T00:46:18.183Z,59.73
2019-05-20T00:48:47.874Z,59.60
2019-05-20T00:51:17.560Z,60.00
2019-05-20T00:53:47.387Z,59.90
2019-05-20T00:56:17.205Z,58.73
2019-05-20T00:58:49.111Z,59.43
2019-05-20T01:01:18.846Z,58.83
2019-05-20T01:03:48.540Z,58.13
2019-05-20T01:06:18.215Z,59.73
2019-05-20T01:08:47.869Z,57.70
2019-05-20T01:11:17.753Z,60.07
2019-05-20T01:13:49.195Z,55.43
2019-05-20T01:16:19.261Z,57.70
2019-05-20T01:18:56.451Z,61.10
2019-05-20T01:21:26.112Z,63.63
2019-05-20T01:23:55.800Z,58.63
2019-05-20T01:26:25.486Z,58.17
2019-05-20T01:28:55.185Z,60.53
2019-05-20T01:31:24.942Z,58.83
2019-05-20T01:33:54.613Z,58.67
2019-05-20T01:36:24.271Z,57.93
2019-05-20T01:38:54.574Z,56.83
2019-05-20T01:41:25.710Z,56.77
2019-05-20T01:43:57.614Z,58.00
2019-05-20T01:46:29.553Z,57.07
2019-05-20T01:49:01.171Z,57.83
2019-05-20T01:51:30.842Z,56.47
2019-05-20T01:54:00.936Z,56.27
2019-05-20T01:56:31.929Z,59.77
2019-05-20T01:59:01.670Z,56.33
2019-05-20T02:01:31.401Z,56.87
2019-05-20T02:04:00.993Z,55.53
2019-05-20T02:06:30.749Z,59.73
2019-05-20T02:09:02.455Z,56.67
2019-05-20T02:11:33.698Z,58.10
2019-05-20T02:14:05.095Z,57.23
2019-05-20T02:16:35.652Z,57.80
2019-05-20T02:19:05.942Z,56.23
2019-05-20T02:21:35.912Z,57.67
2019-05-20T02:24:05.851Z,57.13
2019-05-20T02:26:35.593Z,57.57
2019-05-20T02:29:05.254Z,56.70
2019-05-20T02:31:34.992Z,56.20
2019-05-20T02:34:04.659Z,56.53
2019-05-20T02:36:35.517Z,58.60
2019-05-20T02:39:07.103Z,58.87
2019-05-20T02:41:37.170Z,60.47
2019-05-20T02:44:07.079Z,56.73
2019-05-20T02:46:37.868Z,55.67
2019-05-20T02:49:07.614Z,56.97
2019-05-20T02:51:37.636Z,57.90
2019-05-20T02:54:07.348Z,57.80
2019-05-20T02:56:37.019Z,59.77
2019-05-20T02:59:06.669Z,57.43
2019-05-20T03:01:36.426Z,59.07
2019-05-20T03:04:12.025Z,57.53
2019-05-20T03:06:37.496Z,58.13
2019-05-20T03:09:11.714Z,58.83
2019-05-20T03:11:39.993Z,57.60
2019-05-20T03:14:10.480Z,57.13
2019-05-20T03:16:40.213Z,58.27
2019-05-20T03:19:10.082Z,58.67
2019-05-20T03:21:39.752Z,56.00
2019-05-20T03:24:09.520Z,58.53
2019-05-20T03:26:39.183Z,58.37
2019-05-20T03:29:08.848Z,57.00
2019-05-20T03:31:38.560Z,56.33
2019-05-20T03:34:08.378Z,59.17
2019-05-20T03:36:38.023Z,54.67
2019-05-20T03:39:08.025Z,59.60
2019-05-20T03:41:37.696Z,56.53
2019-05-20T03:44:07.383Z,55.30
2019-05-20T03:46:37.068Z,55.80
2019-05-20T03:49:06.719Z,57.73
2019-05-20T03:51:36.396Z,58.77
2019-05-20T03:54:06.070Z,56.47
2019-05-20T03:56:35.735Z,57.70
2019-05-20T03:59:05.788Z,56.90
2019-05-20T04:01:35.474Z,58.70
2019-05-20T04:04:05.454Z,57.33
2019-05-20T04:06:35.121Z,57.13
2019-05-20T04:09:06.881Z,61.70
2019-05-20T04:11:36.750Z,57.43
2019-05-20T04:14:06.404Z,58.47
2019-05-20T04:16:37.585Z,59.33
2019-05-20T04:19:07.249Z,57.00
2019-05-20T04:21:36.915Z,59.67
2019-05-20T04:24:06.729Z,59.47
2019-05-20T04:26:36.658Z,61.13
2019-05-20T04:29:06.316Z,60.03
2019-05-20T04:31:36.094Z,58.40
2019-05-20T04:34:05.847Z,60.10
2019-05-20T04:36:35.608Z,58.40
2019-05-20T04:39:07.397Z,59.47
2019-05-20T04:41:37.524Z,58.60
2019-05-20T04:44:08.492Z,61.30
2019-05-20T04:46:38.468Z,62.57
2019-05-20T04:49:08.109Z,64.77
2019-05-20T04:51:37.841Z,68.97
2019-05-20T04:54:07.857Z,67.23
2019-05-20T04:56:37.510Z,69.60
2019-05-20T04:59:07.252Z,70.60
2019-05-20T05:01:36.927Z,70.70
2019-05-20T05:04:06.863Z,70.50
2019-05-20T05:06:36.553Z,72.00
2019-05-20T05:09:07.866Z,74.80
2019-05-20T05:11:37.546Z,67.87
2019-05-20T05:14:07.545Z,67.93
2019-05-20T05:16:37.373Z,70.43
2019-05-20T05:19:07.049Z,68.20
2019-05-20T05:21:36.724Z,67.07
2019-05-20T05:24:06.699Z,65.37
2019-05-20T05:26:36.385Z,62.27
2019-05-20T05:29:06.229Z,64.50
2019-05-20T05:31:36.007Z,64.57
2019-05-20T05:34:05.832Z,65.83
2019-05-20T05:36:35.786Z,67.83
2019-05-20T05:39:07.544Z,66.50
2019-05-20T05:41:37.831Z,65.60
2019-05-20T05:44:07.514Z,65.13
2019-05-20T05:46:37.467Z,63.23
2019-05-20T05:49:09.151Z,64.73
2019-05-20T05:51:38.835Z,68.23
2019-05-20T05:54:08.524Z,65.07
2019-05-20T05:56:38.681Z,66.83
2019-05-20T05:59:08.838Z,68.97
2019-05-20T06:01:38.895Z,70.60
2019-05-20T06:04:08.982Z,72.63
2019-05-20T06:06:40.114Z,72.53
2019-05-20T06:09:09.815Z,72.50
2019-05-20T06:11:39.769Z,73.23
2019-05-20T06:14:09.440Z,70.53
2019-05-20T06:16:39.161Z,70.17
2019-05-20T06:19:10.288Z,72.57
2019-05-20T06:21:39.961Z,73.70
2019-05-20T06:24:09.754Z,69.60
2019-05-20T06:26:39.439Z,71.67
2019-05-20T06:29:09.105Z,70.40
2019-05-20T06:31:40.284Z,70.37
2019-05-20T06:34:09.949Z,72.30
2019-05-20T06:36:41.567Z,70.67
2019-05-20T06:39:12.226Z,71.60
2019-05-20T06:41:42.895Z,75.00
2019-05-20T06:44:13.802Z,73.87
2019-05-20T06:46:43.509Z,72.30
2019-05-20T06:49:13.151Z,68.77
2019-05-20T06:51:44.171Z,73.53
2019-05-20T06:54:13.928Z,72.30
2019-05-20T06:56:43.790Z,71.07
2019-05-20T06:59:13.847Z,71.40
2019-05-20T07:01:43.779Z,70.47
2019-05-20T07:04:13.568Z,68.20
2019-05-20T07:06:47.268Z,68.60
2019-05-20T07:09:14.665Z,69.97
2019-05-20T07:11:52.267Z,71.03
2019-05-20T07:14:15.871Z,67.40
2019-05-20T07:16:45.594Z,72.50
2019-05-20T07:19:15.279Z,70.93
2019-05-20T07:21:44.949Z,65.83
2019-05-20T07:24:14.652Z,64.10
2019-05-20T07:26:44.857Z,65.57
2019-05-20T07:29:14.770Z,65.77
2019-05-20T07:31:44.442Z,67.20
2019-05-20T07:34:14.247Z,63.30
2019-05-20T07:36:43.921Z,63.10
2019-05-20T07:39:13.613Z,67.13
2019-05-20T07:41:43.265Z,65.30
2019-05-20T07:44:12.992Z,69.60
2019-05-20T07:46:42.713Z,64.87
2019-05-20T07:49:12.752Z,67.90
2019-05-20T07:51:43.563Z,68.57
2019-05-20T07:54:14.987Z,67.93
2019-05-20T07:56:47.882Z,68.87
2019-05-20T07:59:21.823Z,72.60
2019-05-20T08:01:52.093Z,67.27
2019-05-20T08:04:21.969Z,67.23
2019-05-20T08:06:51.734Z,69.50
2019-05-20T08:09:21.382Z,71.03
2019-05-20T08:11:52.518Z,70.63
2019-05-20T08:14:22.611Z,68.60
2019-05-20T08:16:52.329Z,68.43
2019-05-20T08:19:23.448Z,67.97
2019-05-20T08:21:53.299Z,67.47
2019-05-20T08:24:24.525Z,67.00
2019-05-20T08:26:55.731Z,67.57
2019-05-20T08:29:25.750Z,64.33
2019-05-20T08:31:55.624Z,64.53
2019-05-20T08:34:26.952Z,63.70
2019-05-20T08:36:56.814Z,66.37
2019-05-20T08:39:26.564Z,66.27
2019-05-20T08:41:56.252Z,62.30
2019-05-20T08:44:26.959Z,61.23
2019-05-20T08:46:56.634Z,63.00
2019-05-20T08:49:31.017Z,61.70
2019-05-20T08:52:01.967Z,62.83
2019-05-20T08:54:31.638Z,60.17
2019-05-20T08:57:01.445Z,61.57
2019-05-20T08:59:31.244Z,62.77
2019-05-20T09:02:02.254Z,61.70
2019-05-20T09:04:31.920Z,62.50
2019-05-20T09:07:01.709Z,61.07
2019-05-20T09:09:31.574Z,60.40
2019-05-20T09:12:01.245Z,59.93
2019-05-20T09:14:31.180Z,63.57
2019-05-20T09:17:00.900Z,58.23
2019-05-20T09:19:30.580Z,60.13
2019-05-20T09:22:00.283Z,59.07
2019-05-20T09:24:31.074Z,59.00
2019-05-20T09:27:00.782Z,61.43
2019-05-20T09:29:33.195Z,60.37
2019-05-20T09:32:03.331Z,59.37
2019-05-20T09:34:34.174Z,60.40
2019-05-20T09:37:03.888Z,60.67
2019-05-20T09:39:34.874Z,61.93
2019-05-20T09:42:04.608Z,59.57
2019-05-20T09:44:37.532Z,61.13
2019-05-20T09:47:07.198Z,64.50
2019-05-20T09:49:37.053Z,62.80
2019-05-20T09:52:07.954Z,63.20
2019-05-20T09:54:39.710Z,61.60
2019-05-20T09:57:09.698Z,62.57
2019-05-20T09:59:43.463Z,64.33
2019-05-20T10:02:10.788Z,61.67
2019-05-20T10:04:40.480Z,62.83
2019-05-20T10:07:10.132Z,63.10
2019-05-20T10:09:39.794Z,61.23
2019-05-20T10:12:09.503Z,62.07
2019-05-20T10:14:39.266Z,62.00
2019-05-20T10:17:12.235Z,64.03
2019-05-20T10:19:41.975Z,64.97
2019-05-20T10:22:11.849Z,63.83
2019-05-20T10:24:41.346Z,64.63
2019-05-20T10:27:12.538Z,64.73
2019-05-20T10:29:42.184Z,65.10
2019-05-20T10:32:12.185Z,63.10
2019-05-20T10:34:43.735Z,62.67
2019-05-20T10:37:13.426Z,61.63
2019-05-20T10:39:45.174Z,63.30
2019-05-20T10:42:14.909Z,62.63
2019-05-20T10:44:44.783Z,65.70
2019-05-20T10:47:14.520Z,64.67
2019-05-20T10:49:44.212Z,66.03
2019-05-20T10:52:13.881Z,66.23
2019-05-20T10:54:43.549Z,62.30
2019-05-20T10:57:13.241Z,62.50
2019-05-20T10:59:43.491Z,64.20
2019-05-20T11:02:13.182Z,65.47
2019-05-20T11:04:42.876Z,65.20
2019-05-20T11:07:12.550Z,62.13
2019-05-20T11:09:42.214Z,61.83
2019-05-20T11:12:11.928Z,63.10
2019-05-20T11:14:43.272Z,66.17
2019-05-20T11:17:15.150Z,64.50
2019-05-20T11:19:44.540Z,59.97
2019-05-20T11:22:14.194Z,60.73
2019-05-20T11:24:45.115Z,62.30
2019-05-20T11:27:16.117Z,63.97
2019-05-20T11:29:48.184Z,63.37
2019-05-20T11:32:19.906Z,63.43
2019-05-20T11:34:49.634Z,63.63
2019-05-20T11:37:20.657Z,63.90
2019-05-20T11:39:50.496Z,64.33
2019-05-20T11:42:20.145Z,64.70
2019-05-20T11:44:49.810Z,64.20
2019-05-20T11:47:19.512Z,62.50
2019-05-20T11:49:49.160Z,64.37
2019-05-20T11:52:19.004Z,63.90
2019-05-20T11:54:48.680Z,61.67
2019-05-20T11:57:18.371Z,66.17
2019-05-20T11:59:48.030Z,62.70
2019-05-20T12:02:17.693Z,61.73
2019-05-20T12:04:47.542Z,63.53
2019-05-20T12:07:18.475Z,63.47
2019-05-20T12:09:50.144Z,62.37
2019-05-20T12:12:19.638Z,64.10
2019-05-20T12:14:49.296Z,63.10
2019-05-20T12:17:18.963Z,64.13
2019-05-20T12:19:48.674Z,64.57
2019-05-20T12:22:19.436Z,63.67
2019-05-20T12:24:51.716Z,64.33
2019-05-20T12:27:20.766Z,67.17
2019-05-20T12:29:50.433Z,64.60
2019-05-20T12:32:20.107Z,65.10
2019-05-20T12:34:51.111Z,65.20
2019-05-20T12:37:20.786Z,65.40
2019-05-20T12:40:05.930Z,67.00
2019-05-20T12:42:21.935Z,66.73
2019-05-20T12:44:51.706Z,64.93
2019-05-20T12:47:24.527Z,63.20
2019-05-20T12:49:54.338Z,65.03
2019-05-20T12:52:24.011Z,65.77
2019-05-20T12:55:07.010Z,64.50
2019-05-20T12:57:25.150Z,65.67
2019-05-20T12:59:54.821Z,63.23
2019-05-20T13:02:24.475Z,65.43
2019-05-20T13:04:54.227Z,64.87
2019-05-20T13:07:24.498Z,66.80
2019-05-20T13:09:54.163Z,66.37
2019-05-20T13:12:23.853Z,63.13
2019-05-20T13:14:53.605Z,63.30
2019-05-20T13:17:24.238Z,66.07
2019-05-20T13:19:54.122Z,65.50
2019-05-20T13:22:25.091Z,66.53
2019-05-20T13:24:54.745Z,64.07
2019-05-20T13:27:24.462Z,65.03
2019-05-20T13:29:55.307Z,64.83
2019-05-20T13:32:24.959Z,68.07
2019-05-20T13:34:54.715Z,63.83
2019-05-20T13:37:25.845Z,65.33
2019-05-20T13:39:55.542Z,64.40
2019-05-20T13:42:33.845Z,64.10
2019-05-20T13:45:03.717Z,63.67
2019-05-20T13:47:33.391Z,62.17
2019-05-20T13:50:04.428Z,64.10
2019-05-20T13:52:35.564Z,64.43
2019-05-20T13:55:06.618Z,63.97
2019-05-20T13:57:36.384Z,63.37
2019-05-20T14:00:08.317Z,64.50
2019-05-20T14:02:38.084Z,63.40
2019-05-20T14:05:07.947Z,67.70
2019-05-20T14:07:38.297Z,62.30
2019-05-20T14:10:08.674Z,65.67
2019-05-20T14:12:38.341Z,68.57
2019-05-20T14:15:10.492Z,66.43
2019-05-20T14:17:40.153Z,66.20
2019-05-20T14:20:10.423Z,64.23
2019-05-20T14:22:40.586Z,63.47
2019-05-20T14:25:11.866Z,64.73
2019-05-20T14:27:41.560Z,62.97
2019-05-20T14:30:12.218Z,66.37
2019-05-20T14:32:41.891Z,64.87
2019-05-20T14:35:17.156Z,64.50
2019-05-20T14:37:46.781Z,70.87
2019-05-20T14:40:16.864Z,66.50
2019-05-20T14:42:46.544Z,66.90
2019-05-20T14:45:16.337Z,68.80
2019-05-20T14:47:46.026Z,65.50
2019-05-20T14:50:15.804Z,66.00
2019-05-20T14:52:45.457Z,64.70
2019-05-20T14:55:15.237Z,66.83
2019-05-20T14:57:45.048Z,65.60
2019-05-20T15:00:15.301Z,65.60
2019-05-20T15:02:44.968Z,65.07
2019-05-20T15:05:15.348Z,66.30
2019-05-20T15:07:45.100Z,64.93
2019-05-20T15:10:15.310Z,67.40
2019-05-20T15:12:45.035Z,65.77
2019-05-20T15:15:15.804Z,66.77
2019-05-20T15:17:45.533Z,67.00
2019-05-20T15:20:16.024Z,66.90
2019-05-20T15:22:46.012Z,66.80
2019-05-20T15:25:16.713Z,69.00
2019-05-20T15:27:49.813Z,69.53
2019-05-20T15:30:22.959Z,68.27
2019-05-20T15:32:54.753Z,68.37
2019-05-20T15:35:24.395Z,69.90
2019-05-20T15:37:54.061Z,68.73
2019-05-20T15:40:24.505Z,72.83
2019-05-20T15:42:54.590Z,70.30
2019-05-20T15:45:24.292Z,74.70
2019-05-20T15:47:53.973Z,73.90
2019-05-20T15:50:23.636Z,71.67
2019-05-20T15:52:53.356Z,72.70
2019-05-20T15:55:23.042Z,71.33
2019-05-20T15:57:56.535Z,89.93
2019-05-20T16:00:26.169Z,106.27
2019-05-20T16:02:57.478Z,73.13
2019-05-20T16:05:27.142Z,71.27
2019-05-20T16:07:56.817Z,71.67
2019-05-20T16:10:26.511Z,79.33
2019-05-20T16:12:57.304Z,74.03
2019-05-20T16:15:28.108Z,74.37
2019-05-20T16:17:57.793Z,73.63
2019-05-20T16:20:27.516Z,76.80
2019-05-20T16:22:57.237Z,75.07
2019-05-20T16:25:26.929Z,77.77
2019-05-20T16:27:56.587Z,71.93
2019-05-20T16:30:27.768Z,74.07
2019-05-20T16:32:57.463Z,74.47
2019-05-20T16:35:27.134Z,75.33
2019-05-20T16:37:58.192Z,74.10
2019-05-20T16:40:27.884Z,75.67
2019-05-20T16:42:57.782Z,74.03
2019-05-20T16:45:27.551Z,75.47
2019-05-20T16:47:57.238Z,74.10
2019-05-20T16:50:27.277Z,72.77
2019-05-20T16:52:56.970Z,76.17
2019-05-20T16:55:26.750Z,73.07
2019-05-20T16:57:56.430Z,73.03
2019-05-20T17:00:31.985Z,74.07
2019-05-20T17:02:57.488Z,71.83
2019-05-20T17:05:27.243Z,73.60
2019-05-20T17:07:56.935Z,73.93
2019-05-20T17:10:27.060Z,69.97
2019-05-20T17:12:56.741Z,74.33
2019-05-20T17:15:28.085Z,75.57
2019-05-20T17:17:57.803Z,71.63
2019-05-20T17:20:27.822Z,74.43
2019-05-20T17:22:57.462Z,73.53
2019-05-20T17:25:28.766Z,71.50
2019-05-20T17:27:58.757Z,70.73
2019-05-20T17:30:28.433Z,71.63
2019-05-20T17:32:58.105Z,72.43
2019-05-20T17:35:28.085Z,73.20
2019-05-20T17:37:58.771Z,73.53
2019-05-20T17:40:28.495Z,72.17
2019-05-20T17:42:58.180Z,69.57
2019-05-20T17:45:27.882Z,68.37
2019-05-20T17:47:57.678Z,69.07
2019-05-20T17:50:27.343Z,69.70
2019-05-20T17:52:57.015Z,71.33
2019-05-20T17:55:27.313Z,69.63
2019-05-20T17:57:57.416Z,69.73
2019-05-20T18:00:27.239Z,67.80
2019-05-20T18:02:56.932Z,67.83
2019-05-20T18:05:26.581Z,68.57
2019-05-20T18:07:56.288Z,70.63
2019-05-20T18:10:27.426Z,69.00
2019-05-20T18:12:57.107Z,66.83
2019-05-20T18:15:26.968Z,71.63
2019-05-20T18:17:56.646Z,72.33
2019-05-20T18:20:26.349Z,67.60
2019-05-20T18:22:56.102Z,66.67
2019-05-20T18:25:26.734Z,69.03
2019-05-20T18:27:57.735Z,63.80
2019-05-20T18:30:27.504Z,68.10
2019-05-20T18:32:57.202Z,76.10
2019-05-20T18:35:28.793Z,66.37
2019-05-20T18:37:58.647Z,63.67
2019-05-20T18:40:29.484Z,65.47
2019-05-20T18:42:59.165Z,66.97
2019-05-20T18:45:28.831Z,64.53
2019-05-20T18:47:59.134Z,63.77
2019-05-20T18:50:30.127Z,62.80
2019-05-20T18:52:59.882Z,64.30
2019-05-20T18:55:29.612Z,62.80
2019-05-20T18:58:00.210Z,61.80
2019-05-20T19:00:30.065Z,61.90
2019-05-20T19:03:01.433Z,63.53
2019-05-20T19:05:32.308Z,63.83
2019-05-20T19:08:02.240Z,61.27
2019-05-20T19:10:31.947Z,62.43
2019-05-20T19:13:01.707Z,64.87
2019-05-20T19:15:31.753Z,60.73
2019-05-20T19:18:01.449Z,66.87
2019-05-20T19:20:31.234Z,64.50
2019-05-20T19:23:02.385Z,65.47
2019-05-20T19:25:37.693Z,62.90
2019-05-20T19:28:03.557Z,63.23
2019-05-20T19:30:33.256Z,64.50
2019-05-20T19:33:03.049Z,60.93
2019-05-20T19:35:32.706Z,62.77
2019-05-20T19:38:02.591Z,60.27
2019-05-20T19:40:32.402Z,60.93
2019-05-20T19:43:03.657Z,60.80
2019-05-20T19:45:33.333Z,63.27
2019-05-20T19:48:03.077Z,60.50
2019-05-20T19:50:32.923Z,60.97
2019-05-20T19:53:02.659Z,60.77
2019-05-20T19:55:32.617Z,61.17
2019-05-20T19:58:02.306Z,60.13
2019-05-20T20:00:33.036Z,60.97
2019-05-20T20:03:02.833Z,60.10
2019-05-20T20:05:32.558Z,64.67
2019-05-20T20:08:02.263Z,62.70
2019-05-20T20:10:32.004Z,66.33
2019-05-20T20:13:03.983Z,65.23
2019-05-20T20:15:34.285Z,62.60
2019-05-20T20:18:06.005Z,69.47
2019-05-20T20:20:35.688Z,66.13
2019-05-20T20:23:05.363Z,65.70
2019-05-20T20:25:35.166Z,68.40
2019-05-20T20:28:06.298Z,64.10
2019-05-20T20:30:35.962Z,60.07
2019-05-20T20:33:06.799Z,58.63
2019-05-20T20:35:38.282Z,62.33
2019-05-20T20:38:08.221Z,59.77
2019-05-20T20:40:38.060Z,58.20
2019-05-20T20:43:08.157Z,60.37
2019-05-20T20:45:37.828Z,59.30
2019-05-20T20:48:07.534Z,60.30
2019-05-20T20:50:37.199Z,59.33
2019-05-20T20:53:06.868Z,60.57
2019-05-20T20:55:36.845Z,58.97
2019-05-20T20:58:06.544Z,62.03
2019-05-20T21:00:36.285Z,60.57
2019-05-20T21:03:06.061Z,58.13
2019-05-20T21:05:36.064Z,57.10
2019-05-20T21:08:05.819Z,57.90
2019-05-20T21:10:35.496Z,60.47
2019-05-20T21:13:06.238Z,58.13
2019-05-20T21:15:35.913Z,59.17
2019-05-20T21:18:05.831Z,58.77
2019-05-20T21:20:35.512Z,55.40
2019-05-20T21:23:06.584Z,57.83
2019-05-20T21:25:36.283Z,59.07
2019-05-20T21:28:07.367Z,55.47
2019-05-20T21:30:38.727Z,59.53
2019-05-20T21:33:11.756Z,56.47
2019-05-20T21:35:45.162Z,56.47
2019-05-20T21:38:13.370Z,57.30
2019-05-20T21:40:45.960Z,56.93
2019-05-20T21:43:15.635Z,56.83
2019-05-20T21:45:45.843Z,56.50
2019-05-20T21:48:16.837Z,57.63
2019-05-20T21:50:46.511Z,58.23
2019-05-20T21:53:16.201Z,57.40
2019-05-20T21:55:45.879Z,56.90
2019-05-20T21:58:15.569Z,54.33
2019-05-20T22:00:55.065Z,56.03
2019-05-20T22:03:25.414Z,55.80
2019-05-20T22:05:55.253Z,55.37
2019-05-20T22:08:25.043Z,56.70
2019-05-20T22:10:55.296Z,55.27
2019-05-20T22:13:24.929Z,54.93
2019-05-20T22:15:54.725Z,56.10
2019-05-20T22:18:24.359Z,60.67
2019-05-20T22:20:54.050Z,56.90
2019-05-20T22:23:28.215Z,59.57
2019-05-20T22:25:57.932Z,59.27
2019-05-20T22:28:27.855Z,54.37
2019-05-20T22:30:57.542Z,56.07
2019-05-20T22:33:40.860Z,55.50
2019-05-20T22:36:00.766Z,61.47
2019-05-20T22:38:30.495Z,56.27
2019-05-20T22:41:02.202Z,58.33
2019-05-20T22:43:31.861Z,56.33
2019-05-20T22:46:01.613Z,58.93
2019-05-20T22:48:31.306Z,59.70
2019-05-20T22:51:00.993Z,56.23
2019-05-20T22:53:30.730Z,58.67
2019-05-20T22:56:00.414Z,57.03
2019-05-20T22:58:30.105Z,58.50
2019-05-20T23:00:59.845Z,57.83
2019-05-20T23:03:29.638Z,58.50
2019-05-20T23:05:59.359Z,55.13
2019-05-20T23:08:30.419Z,56.07
2019-05-20T23:11:00.177Z,56.47
2019-05-20T23:13:30.004Z,57.67
2019-05-20T23:15:59.789Z,56.80
2019-05-20T23:18:29.561Z,56.20
2019-05-20T23:20:59.250Z,54.57
2019-05-20T23:23:29.001Z,55.27
2019-05-20T23:25:58.658Z,55.67
2019-05-20T23:28:28.809Z,54.90
2019-05-20T23:30:58.608Z,55.23
2019-05-20T23:33:28.277Z,56.10
2019-05-20T23:35:58.218Z,57.40
2019-05-20T23:38:28.023Z,56.23
2019-05-20T23:40:57.954Z,55.70
2019-05-20T23:43:30.444Z,55.03
2019-05-20T23:46:00.143Z,54.40
2019-05-20T23:48:33.818Z,55.90
2019-05-20T23:51:03.754Z,54.60
2019-05-20T23:53:34.741Z,56.47
2019-05-20T23:56:07.473Z,55.87
2019-05-20T23:58:37.152Z,58.07
